createdAt,value
2023-03-12T00:00:08.511Z,1.87
2023-03-12T00:02:35.520Z,2.02
2023-03-12T00:05:02.349Z,2.00
2023-03-12T00:07:31.019Z,1.78
2023-03-12T00:09:57.697Z,1.86
2023-03-12T00:12:27.193Z,1.78
2023-03-12T00:14:53.845Z,1.82
2023-03-12T00:17:23.429Z,1.79
2023-03-12T00:19:54.001Z,1.80
2023-03-12T00:22:23.669Z,1.80
2023-03-12T00:24:52.219Z,1.79
2023-03-12T00:27:19.516Z,1.74
2023-03-12T00:29:48.972Z,1.70
2023-03-12T00:32:16.353Z,1.69
2023-03-12T00:34:45.888Z,1.79
2023-03-12T00:37:14.703Z,1.78
2023-03-12T00:39:41.350Z,1.60
2023-03-12T00:42:18.966Z,1.60
2023-03-12T00:44:45.906Z,1.60
2023-03-12T00:47:18.600Z,1.49
2023-03-12T00:49:45.269Z,1.60
2023-03-12T00:52:14.635Z,1.73
2023-03-12T00:54:41.298Z,1.68
2023-03-12T00:57:07.896Z,1.70
2023-03-12T00:59:34.555Z,1.61
2023-03-12T01:02:06.157Z,1.58
2023-03-12T01:04:32.814Z,1.53
2023-03-12T01:07:01.888Z,1.48
2023-03-12T01:09:30.910Z,1.47
2023-03-12T01:11:59.384Z,1.34
2023-03-12T01:14:25.993Z,1.16
2023-03-12T01:16:52.783Z,1.34
2023-03-12T01:19:19.501Z,1.29
2023-03-12T01:21:46.120Z,1.27
2023-03-12T01:24:15.793Z,1.18
2023-03-12T01:26:42.630Z,1.19
2023-03-12T01:29:09.260Z,1.10
2023-03-12T01:31:36.016Z,1.10
2023-03-12T01:34:04.464Z,1.08
2023-03-12T01:36:34.179Z,1.01
2023-03-12T01:39:03.344Z,0.84
2023-03-12T01:41:43.693Z,0.80
2023-03-12T01:44:19.346Z,0.92
2023-03-12T01:46:47.409Z,0.77
2023-03-12T01:49:27.064Z,0.76
2023-03-12T01:52:10.548Z,0.73
2023-03-12T01:54:46.729Z,0.79
2023-03-12T01:57:21.122Z,0.83
2023-03-12T01:59:50.133Z,0.76
2023-03-12T02:02:18.696Z,0.84
2023-03-12T02:04:47.681Z,0.78
2023-03-12T02:07:16.686Z,0.62
2023-03-12T02:09:48.745Z,0.56
2023-03-12T02:12:16.904Z,0.78
2023-03-12T02:14:43.914Z,0.82
2023-03-12T02:17:11.213Z,0.79
2023-03-12T02:20:16.329Z,0.82
2023-03-12T02:22:53.063Z,0.81
2023-03-12T02:25:35.334Z,0.88
2023-03-12T02:28:06.677Z,0.89
2023-03-12T02:30:34.333Z,0.94
2023-03-12T02:33:08.289Z,0.90
2023-03-12T02:35:37.709Z,0.93
2023-03-12T02:38:33.048Z,0.82
2023-03-12T02:41:04.170Z,0.75
2023-03-12T02:43:31.113Z,0.80
2023-03-12T02:45:57.924Z,0.83
2023-03-12T02:48:24.650Z,0.92
2023-03-12T02:50:51.306Z,0.79
2023-03-12T02:53:17.951Z,0.84
2023-03-12T02:55:44.575Z,0.81
2023-03-12T02:58:11.186Z,0.86
2023-03-12T03:00:37.885Z,0.88
2023-03-12T03:03:06.973Z,0.79
2023-03-12T03:05:33.731Z,0.77
2023-03-12T03:08:03.870Z,0.61
2023-03-12T03:10:30.653Z,0.55
2023-03-12T03:12:59.610Z,0.69
2023-03-12T03:15:26.605Z,0.75
2023-03-12T03:17:55.572Z,0.84
2023-03-12T03:20:24.390Z,0.88
2023-03-12T03:22:51.060Z,0.80
2023-03-12T03:25:18.389Z,0.65
2023-03-12T03:27:44.979Z,0.82
2023-03-12T03:30:14.068Z,0.81
2023-03-12T03:32:40.701Z,0.89
2023-03-12T03:35:07.740Z,0.83
2023-03-12T03:37:34.475Z,0.80
2023-03-12T03:40:01.144Z,0.82
2023-03-12T03:42:27.849Z,0.80
2023-03-12T03:44:54.579Z,0.81
2023-03-12T03:47:21.839Z,0.81
2023-03-12T03:49:48.495Z,0.78
2023-03-12T03:52:15.175Z,0.77
2023-03-12T03:54:41.814Z,0.76
2023-03-12T03:57:08.467Z,0.76
2023-03-12T03:59:35.114Z,0.77
2023-03-12T04:02:02.341Z,0.73
2023-03-12T04:04:31.543Z,0.83
2023-03-12T04:07:00.499Z,0.78
2023-03-12T04:09:27.178Z,0.78
2023-03-12T04:11:56.112Z,0.74
2023-03-12T04:14:24.250Z,0.67
2023-03-12T04:16:58.031Z,0.67
2023-03-12T04:19:24.672Z,0.64
2023-03-12T04:21:54.086Z,0.67
2023-03-12T04:24:23.755Z,0.63
2023-03-12T04:26:51.701Z,0.55
2023-03-12T04:29:19.370Z,0.60
2023-03-12T04:31:46.362Z,0.65
2023-03-12T04:34:16.102Z,0.57
2023-03-12T04:36:45.317Z,0.56
2023-03-12T04:39:11.944Z,0.57
2023-03-12T04:41:40.383Z,0.44
2023-03-12T04:44:07.009Z,0.56
2023-03-12T04:46:41.258Z,0.57
2023-03-12T04:49:10.246Z,0.61
2023-03-12T04:51:39.258Z,0.58
2023-03-12T04:54:05.988Z,0.64
2023-03-12T04:56:32.667Z,0.58
2023-03-12T04:58:59.407Z,0.58
2023-03-12T05:01:29.055Z,0.67
2023-03-12T05:03:58.291Z,0.66
2023-03-12T05:06:28.528Z,0.61
2023-03-12T05:08:55.232Z,0.49
2023-03-12T05:11:28.180Z,0.59
2023-03-12T05:13:54.763Z,0.69
2023-03-12T05:16:21.483Z,0.44
2023-03-12T05:18:50.599Z,0.37
2023-03-12T05:21:19.770Z,0.39
2023-03-12T05:23:53.744Z,0.26
2023-03-12T05:26:24.489Z,0.32
2023-03-12T05:28:57.752Z,0.49
2023-03-12T05:31:35.532Z,0.66
2023-03-12T05:34:06.009Z,0.56
2023-03-12T05:36:35.796Z,0.57
2023-03-12T05:39:02.447Z,0.67
2023-03-12T05:41:29.994Z,0.70
2023-03-12T05:43:57.703Z,0.57
2023-03-12T05:46:25.948Z,0.56
2023-03-12T05:48:53.116Z,0.49
2023-03-12T05:51:23.371Z,0.33
2023-03-12T05:53:55.553Z,0.39
2023-03-12T05:56:22.181Z,0.45
2023-03-12T05:58:51.085Z,0.60
2023-03-12T06:01:25.216Z,0.41
2023-03-12T06:03:55.947Z,0.51
2023-03-12T06:06:25.659Z,0.68
2023-03-12T06:08:55.820Z,0.66
2023-03-12T06:11:22.458Z,0.56
2023-03-12T06:13:51.578Z,0.56
2023-03-12T06:16:28.437Z,0.61
2023-03-12T06:19:03.895Z,0.72
2023-03-12T06:21:33.230Z,0.65
2023-03-12T06:24:03.220Z,0.73
2023-03-12T06:26:30.132Z,0.74
2023-03-12T06:28:58.077Z,0.70
2023-03-12T06:31:24.843Z,0.68
2023-03-12T06:33:53.804Z,0.71
2023-03-12T06:36:23.818Z,0.82
2023-03-12T06:38:50.708Z,0.91
2023-03-12T06:41:21.198Z,0.92
2023-03-12T06:43:50.671Z,0.88
2023-03-12T06:46:21.735Z,0.83
2023-03-12T06:48:51.816Z,0.83
2023-03-12T06:51:21.211Z,0.84
2023-03-12T06:53:49.037Z,0.83
2023-03-12T06:56:22.378Z,0.87
2023-03-12T06:58:49.052Z,0.95
2023-03-12T07:01:18.567Z,1.01
2023-03-12T07:03:50.648Z,1.06
2023-03-12T07:06:20.408Z,1.12
2023-03-12T07:08:48.917Z,1.19
2023-03-12T07:11:19.590Z,1.26
2023-03-12T07:13:46.254Z,1.31
2023-03-12T07:16:15.194Z,1.28
2023-03-12T07:18:42.305Z,1.34
2023-03-12T07:21:11.457Z,1.46
2023-03-12T07:23:38.106Z,1.59
2023-03-12T07:26:06.097Z,1.65
2023-03-12T07:28:32.967Z,1.69
2023-03-12T07:31:06.690Z,1.73
2023-03-12T07:33:34.225Z,1.95
2023-03-12T07:36:10.034Z,2.16
2023-03-12T07:38:36.824Z,2.23
2023-03-12T07:41:08.114Z,2.14
2023-03-12T07:43:40.350Z,2.03
2023-03-12T07:46:09.505Z,1.99
2023-03-12T07:48:36.150Z,1.96
2023-03-12T07:51:02.841Z,2.02
2023-03-12T07:53:31.001Z,2.10
2023-03-12T07:55:57.842Z,2.06
2023-03-12T07:58:24.663Z,2.05
2023-03-12T08:00:53.846Z,1.95
2023-03-12T08:03:21.441Z,2.03
2023-03-12T08:05:59.917Z,2.20
2023-03-12T08:08:27.201Z,2.38
2023-03-12T08:10:54.568Z,2.32
2023-03-12T08:13:23.028Z,2.29
2023-03-12T08:15:51.736Z,2.29
2023-03-12T08:18:19.636Z,2.49
2023-03-12T08:20:46.760Z,2.49
2023-03-12T08:23:13.369Z,2.61
2023-03-12T08:25:40.072Z,2.69
2023-03-12T08:28:08.769Z,2.75
2023-03-12T08:30:37.266Z,3.00
2023-03-12T08:33:05.097Z,3.13
2023-03-12T08:35:31.821Z,3.01
2023-03-12T08:38:01.056Z,3.11
2023-03-12T08:40:28.300Z,2.98
2023-03-12T08:42:55.030Z,3.04
2023-03-12T08:45:21.731Z,3.38
2023-03-12T08:47:48.332Z,3.31
2023-03-12T08:50:17.218Z,3.23
2023-03-12T08:52:46.829Z,3.12
2023-03-12T08:55:13.813Z,3.22
2023-03-12T08:57:42.552Z,3.35
2023-03-12T09:00:14.997Z,3.23
2023-03-12T09:02:46.336Z,3.23
2023-03-12T09:05:13.934Z,3.06
2023-03-12T09:07:43.653Z,3.16
2023-03-12T09:10:11.006Z,3.19
2023-03-12T09:12:37.720Z,3.22
2023-03-12T09:15:05.300Z,3.13
2023-03-12T09:17:32.284Z,3.07
2023-03-12T09:19:58.954Z,2.93
2023-03-12T09:22:25.889Z,2.52
2023-03-12T09:24:52.680Z,2.49
2023-03-12T09:27:19.302Z,2.30
2023-03-12T09:29:59.391Z,2.46
2023-03-12T09:32:28.206Z,2.56
2023-03-12T09:34:55.163Z,2.85
2023-03-12T09:37:24.696Z,2.63
2023-03-12T09:39:52.095Z,3.29
2023-03-12T09:42:25.803Z,3.51
2023-03-12T09:44:55.699Z,3.35
2023-03-12T09:47:36.272Z,2.81
2023-03-12T09:50:19.965Z,2.63
2023-03-12T09:52:58.908Z,2.89
2023-03-12T09:55:27.634Z,3.17
2023-03-12T09:57:56.925Z,3.13
2023-03-12T10:00:29.922Z,3.34
2023-03-12T10:03:09.304Z,3.47
2023-03-12T10:05:45.015Z,3.36
2023-03-12T10:08:33.207Z,3.86
2023-03-12T10:11:33.275Z,4.16
2023-03-12T10:14:25.617Z,3.88
2023-03-12T10:17:05.931Z,3.14
2023-03-12T10:19:52.979Z,3.25
2023-03-12T10:22:46.772Z,2.65
2023-03-12T10:25:30.367Z,3.40
2023-03-12T10:28:11.990Z,3.96
2023-03-12T10:30:42.887Z,4.33
2023-03-12T10:33:16.060Z,4.29
2023-03-12T10:35:45.297Z,4.73
2023-03-12T10:38:20.342Z,4.74
2023-03-12T10:40:47.665Z,4.83
2023-03-12T10:43:14.339Z,4.67
2023-03-12T10:45:47.997Z,4.55
2023-03-12T10:48:32.984Z,3.99
2023-03-12T10:51:02.859Z,4.03
2023-03-12T10:53:39.615Z,4.29
2023-03-12T10:56:09.301Z,4.66
2023-03-12T10:58:42.126Z,4.92
2023-03-12T11:01:24.033Z,4.71
2023-03-12T11:03:52.047Z,4.77
2023-03-12T11:06:36.828Z,4.79
2023-03-12T11:09:17.803Z,4.54
2023-03-12T11:11:47.671Z,4.53
2023-03-12T11:14:19.325Z,4.63
2023-03-12T11:16:46.635Z,4.56
2023-03-12T11:19:25.868Z,4.44
2023-03-12T11:22:05.430Z,4.55
2023-03-12T11:24:32.223Z,4.73
2023-03-12T11:27:15.757Z,4.86
2023-03-12T11:29:50.518Z,4.93
2023-03-12T11:32:30.160Z,5.01
2023-03-12T11:34:57.380Z,4.66
2023-03-12T11:37:43.716Z,4.72
2023-03-12T11:40:17.392Z,4.72
2023-03-12T11:43:04.979Z,5.01
2023-03-12T11:45:53.298Z,4.62
2023-03-12T11:48:56.052Z,4.53
2023-03-12T11:51:34.064Z,4.45
2023-03-12T11:54:26.168Z,4.51
2023-03-12T11:57:02.214Z,4.24
2023-03-12T11:59:43.801Z,4.39
2023-03-12T12:02:32.011Z,4.52
2023-03-12T12:05:26.630Z,4.69
2023-03-12T12:08:14.570Z,4.83
2023-03-12T12:11:04.205Z,4.77
2023-03-12T12:13:57.687Z,4.86
2023-03-12T12:16:38.671Z,4.99
2023-03-12T12:19:32.325Z,5.03
2023-03-12T12:22:17.928Z,4.87
2023-03-12T12:24:53.707Z,4.94
2023-03-12T12:27:25.231Z,4.85
2023-03-12T12:29:54.466Z,4.88
2023-03-12T12:32:45.422Z,4.80
2023-03-12T12:35:43.712Z,4.86
2023-03-12T12:38:32.216Z,4.74
2023-03-12T12:41:08.372Z,4.88
2023-03-12T12:43:47.652Z,4.70
2023-03-12T12:46:26.446Z,4.90
2023-03-12T12:48:56.334Z,5.02
2023-03-12T12:51:36.342Z,5.01
2023-03-12T12:54:17.160Z,5.01
2023-03-12T12:56:58.046Z,5.12
2023-03-12T12:59:32.825Z,5.17
2023-03-12T13:02:01.631Z,5.21
2023-03-12T13:04:38.637Z,5.20
2023-03-12T13:07:25.226Z,5.31
2023-03-12T13:09:56.658Z,5.33
2023-03-12T13:12:36.125Z,5.39
2023-03-12T13:15:31.784Z,5.33
2023-03-12T13:18:00.969Z,5.44
2023-03-12T13:20:53.750Z,5.52
2023-03-12T13:23:32.529Z,5.44
2023-03-12T13:26:16.111Z,5.50
2023-03-12T13:29:06.009Z,5.78
2023-03-12T13:31:43.066Z,5.62
2023-03-12T13:34:15.706Z,5.53
2023-03-12T13:36:51.590Z,5.52
2023-03-12T13:39:40.073Z,5.35
2023-03-12T13:42:24.891Z,5.22
2023-03-12T13:44:52.672Z,5.29
2023-03-12T13:47:19.279Z,5.56
2023-03-12T13:49:56.920Z,5.32
2023-03-12T13:52:23.596Z,5.56
2023-03-12T13:54:59.775Z,5.88
2023-03-12T13:57:37.779Z,6.13
2023-03-12T14:00:13.146Z,5.96
2023-03-12T14:02:47.099Z,6.19
2023-03-12T14:05:18.511Z,6.45
2023-03-12T14:07:58.662Z,6.38
2023-03-12T14:10:34.233Z,6.27
2023-03-12T14:13:25.569Z,6.25
2023-03-12T14:15:58.330Z,6.54
2023-03-12T14:18:28.456Z,6.36
2023-03-12T14:21:02.520Z,6.76
2023-03-12T14:23:44.290Z,6.96
2023-03-12T14:26:21.496Z,7.47
2023-03-12T14:28:57.576Z,7.05
2023-03-12T14:31:26.759Z,7.18
2023-03-12T14:34:19.051Z,7.49
2023-03-12T14:37:24.061Z,7.92
2023-03-12T14:40:09.176Z,7.75
2023-03-12T14:42:36.270Z,7.75
2023-03-12T14:45:14.441Z,7.95
2023-03-12T14:47:41.782Z,8.14
2023-03-12T14:50:16.545Z,7.68
2023-03-12T14:52:43.260Z,8.04
2023-03-12T14:55:18.343Z,8.08
2023-03-12T14:57:47.189Z,8.42
2023-03-12T15:00:28.232Z,8.37
2023-03-12T15:03:07.577Z,8.65
2023-03-12T15:05:35.873Z,8.78
2023-03-12T15:08:04.372Z,9.04
2023-03-12T15:10:32.337Z,9.08
2023-03-12T15:13:05.063Z,9.54
2023-03-12T15:15:31.791Z,9.07
2023-03-12T15:17:59.060Z,9.03
2023-03-12T15:20:26.159Z,9.05
2023-03-12T15:22:53.347Z,9.13
2023-03-12T15:25:28.171Z,9.69
2023-03-12T15:28:06.847Z,9.65
2023-03-12T15:30:36.237Z,10.04
2023-03-12T15:33:10.116Z,9.37
2023-03-12T15:35:40.925Z,9.44
2023-03-12T15:38:18.127Z,9.38
2023-03-12T15:40:51.537Z,9.24
2023-03-12T15:43:23.527Z,10.09
2023-03-12T15:46:01.845Z,9.69
2023-03-12T15:48:38.862Z,9.77
2023-03-12T15:51:36.228Z,10.04
2023-03-12T15:54:24.543Z,8.59
2023-03-12T15:56:51.786Z,9.03
2023-03-12T15:59:25.879Z,8.48
2023-03-12T16:01:57.777Z,6.29
2023-03-12T16:04:24.675Z,5.50
2023-03-12T16:06:55.753Z,5.13
2023-03-12T16:09:27.238Z,4.79
2023-03-12T16:11:55.287Z,4.54
2023-03-12T16:14:30.516Z,4.54
2023-03-12T16:16:56.985Z,4.30
2023-03-12T16:19:30.815Z,4.04
2023-03-12T16:21:57.546Z,3.98
2023-03-12T16:24:24.202Z,3.85
2023-03-12T16:26:54.937Z,3.71
2023-03-12T16:29:31.479Z,3.54
2023-03-12T16:32:01.549Z,3.40
2023-03-12T16:34:30.749Z,3.20
2023-03-12T16:37:00.088Z,3.12
2023-03-12T16:39:32.910Z,3.01
2023-03-12T16:44:43.690Z,2.79
2023-03-12T16:47:13.004Z,2.69
2023-03-12T16:49:43.284Z,2.59
2023-03-12T16:52:24.687Z,2.49
2023-03-12T16:54:57.357Z,2.47
2023-03-12T16:57:32.359Z,2.38
2023-03-12T17:00:00.236Z,2.37
2023-03-12T17:02:28.524Z,2.21
2023-03-12T17:05:01.418Z,2.06
2023-03-12T17:07:28.090Z,1.99
2023-03-12T17:09:55.319Z,2.00
2023-03-12T17:12:39.207Z,1.99
2023-03-12T17:15:13.197Z,1.95
2023-03-12T17:17:44.166Z,1.81
2023-03-12T17:20:15.249Z,1.73
2023-03-12T17:22:45.924Z,1.69
2023-03-12T17:25:28.073Z,1.64
2023-03-12T17:27:59.008Z,1.59
2023-03-12T17:30:27.961Z,1.52
2023-03-12T17:33:08.069Z,1.45
2023-03-12T17:35:40.567Z,1.38
2023-03-12T17:38:08.009Z,1.34
2023-03-12T17:40:42.395Z,1.26
2023-03-12T17:43:15.571Z,1.19
2023-03-12T17:45:43.149Z,1.19
2023-03-12T17:48:18.761Z,1.16
2023-03-12T17:50:45.934Z,1.14
2023-03-12T17:53:13.685Z,1.08
2023-03-12T17:55:40.419Z,1.09
2023-03-12T17:58:12.776Z,1.08
2023-03-12T18:00:39.723Z,1.06
2023-03-12T18:03:06.458Z,1.01
2023-03-12T18:05:41.416Z,0.91
2023-03-12T18:08:15.212Z,0.93
2023-03-12T18:10:44.324Z,0.82
2023-03-12T18:13:13.518Z,0.79
2023-03-12T18:15:43.298Z,0.75
2023-03-12T18:18:10.019Z,0.73
2023-03-12T18:20:39.582Z,0.61
2023-03-12T18:23:12.936Z,0.65
2023-03-12T18:25:39.853Z,0.63
2023-03-12T18:28:07.326Z,0.61
2023-03-12T18:30:39.586Z,0.62
2023-03-12T18:33:07.881Z,0.57
2023-03-12T18:35:36.797Z,0.52
2023-03-12T18:38:06.558Z,0.38
2023-03-12T18:40:33.240Z,0.40
2023-03-12T18:43:03.450Z,0.43
2023-03-12T18:45:31.100Z,0.45
2023-03-12T18:48:00.126Z,0.39
2023-03-12T18:50:32.135Z,0.35
2023-03-12T18:52:59.022Z,0.42
2023-03-12T18:55:28.507Z,0.32
2023-03-12T18:57:57.194Z,0.20
2023-03-12T19:00:25.899Z,0.06
2023-03-12T19:02:55.608Z,0.13
2023-03-12T19:05:24.262Z,0.18
2023-03-12T19:07:55.731Z,0.07
2023-03-12T19:10:27.996Z,0.04
2023-03-12T19:12:58.962Z,-0.01
2023-03-12T19:15:28.300Z,-0.05
2023-03-12T19:17:57.766Z,-0.12
2023-03-12T19:20:24.592Z,-0.22
2023-03-12T19:22:51.333Z,-0.28
2023-03-12T19:25:19.992Z,-0.21
2023-03-12T19:27:55.145Z,-0.25
2023-03-12T19:30:33.509Z,-0.30
2023-03-12T19:33:00.512Z,-0.28
2023-03-12T19:35:32.703Z,-0.31
2023-03-12T19:37:59.833Z,-0.31
2023-03-12T19:40:29.396Z,-0.34
2023-03-12T19:43:01.228Z,-0.44
2023-03-12T19:45:28.315Z,-0.54
2023-03-12T19:47:55.074Z,-0.56
2023-03-12T19:50:25.026Z,-0.57
2023-03-12T19:52:52.773Z,-0.56
2023-03-12T19:55:21.647Z,-0.61
2023-03-12T19:57:50.700Z,-0.75
2023-03-12T20:00:20.517Z,-0.89
2023-03-12T20:02:47.678Z,-0.73
2023-03-12T20:05:20.240Z,-0.73
2023-03-12T20:07:57.481Z,-0.86
2023-03-12T20:10:27.810Z,-0.99
2023-03-12T20:12:54.423Z,-1.05
2023-03-12T20:15:23.306Z,-1.10
2023-03-12T20:17:50.019Z,-1.11
2023-03-12T20:20:16.784Z,-1.17
2023-03-12T20:22:43.424Z,-1.16
2023-03-12T20:25:11.144Z,-1.15
2023-03-12T20:27:40.671Z,-1.18
2023-03-12T20:30:08.121Z,-1.39
2023-03-12T20:32:34.924Z,-1.50
2023-03-12T20:35:04.841Z,-1.37
2023-03-12T20:37:36.335Z,-1.33
2023-03-12T20:40:03.123Z,-1.27
2023-03-12T20:42:32.308Z,-1.37
2023-03-12T20:45:01.151Z,-1.44
2023-03-12T20:47:30.776Z,-1.51
2023-03-12T20:49:57.604Z,-1.63
2023-03-12T20:52:26.323Z,-1.53
2023-03-12T20:54:58.377Z,-1.77
2023-03-12T20:57:27.411Z,-1.79
2023-03-12T20:59:56.704Z,-1.81
2023-03-12T21:02:25.624Z,-1.88
2023-03-12T21:04:54.001Z,-1.87
2023-03-12T21:07:20.692Z,-1.84
2023-03-12T21:09:47.286Z,-1.84
2023-03-12T21:12:16.686Z,-1.80
2023-03-12T21:14:43.643Z,-1.81
2023-03-12T21:17:15.846Z,-1.79
2023-03-12T21:19:43.003Z,-1.86
2023-03-12T21:22:12.715Z,-1.93
2023-03-12T21:24:39.526Z,-2.00
2023-03-12T21:27:06.414Z,-1.99
2023-03-12T21:29:33.105Z,-2.01
2023-03-12T21:31:59.777Z,-2.08
2023-03-12T21:34:29.392Z,-2.10
2023-03-12T21:36:56.836Z,-2.09
2023-03-12T21:39:23.682Z,-2.02
2023-03-12T21:41:51.858Z,-2.05
2023-03-12T21:44:26.033Z,-2.02
2023-03-12T21:46:52.713Z,-2.15
2023-03-12T21:49:19.496Z,-2.25
2023-03-12T21:51:46.171Z,-2.25
2023-03-12T21:54:12.917Z,-2.30
2023-03-12T21:56:45.038Z,-2.26
2023-03-12T21:59:21.969Z,-2.44
2023-03-12T22:01:48.642Z,-2.52
2023-03-12T22:04:17.625Z,-2.58
2023-03-12T22:06:44.258Z,-2.74
2023-03-12T22:09:13.185Z,-2.78
2023-03-12T22:11:41.007Z,-2.81
2023-03-12T22:14:10.210Z,-2.83
2023-03-12T22:16:42.091Z,-2.84
2023-03-12T22:19:10.618Z,-2.88
2023-03-12T22:21:41.691Z,-2.86
2023-03-12T22:24:09.225Z,-2.87
2023-03-12T22:26:36.573Z,-2.81
2023-03-12T22:29:04.754Z,-2.74
2023-03-12T22:31:31.437Z,-2.72
2023-03-12T22:34:00.871Z,-2.96
2023-03-12T22:36:27.873Z,-3.02
2023-03-12T22:38:54.475Z,-2.98
2023-03-12T22:41:25.002Z,-3.02
2023-03-12T22:43:55.156Z,-3.04
2023-03-12T22:46:25.404Z,-3.02
2023-03-12T22:48:54.813Z,-3.08
2023-03-12T22:51:23.311Z,-3.15
2023-03-12T22:53:50.003Z,-3.13
2023-03-12T22:56:16.711Z,-3.15
2023-03-12T22:58:43.337Z,-3.08
2023-03-12T23:01:13.075Z,-3.03
2023-03-12T23:03:41.658Z,-3.03
2023-03-12T23:06:20.386Z,-3.06
2023-03-12T23:08:47.996Z,-3.22
2023-03-12T23:11:15.836Z,-3.27
2023-03-12T23:13:49.275Z,-3.29
2023-03-12T23:16:23.757Z,-3.23
2023-03-12T23:18:50.983Z,-3.29
2023-03-12T23:21:20.400Z,-3.33
2023-03-12T23:23:49.677Z,-3.35
2023-03-12T23:26:34.772Z,-3.36
2023-03-12T23:29:04.050Z,-3.33
2023-03-12T23:31:30.798Z,-3.51
2023-03-12T23:34:00.174Z,-3.53
2023-03-12T23:36:28.904Z,-3.58
2023-03-12T23:38:55.838Z,-3.60
2023-03-12T23:41:26.443Z,-3.64
2023-03-12T23:43:53.436Z,-3.67
2023-03-12T23:46:20.573Z,-3.73
2023-03-12T23:48:50.645Z,-3.72
2023-03-12T23:51:26.609Z,-3.73
2023-03-12T23:53:57.607Z,-3.74
2023-03-12T23:56:27.168Z,-3.79
2023-03-12T23:58:54.368Z,-3.82
